sensor_id;sensor_type;location;lat;lon;timestamp;P1;durP1;ratioP1;P2;durP2;ratioP2
21501;SDS011;27639;48.674;9.242;2023-02-27T00:01:26;2.80;;;1.50;;
21501;SDS011;27639;48.674;9.242;2023-02-27T00:03:53;2.28;;;1.30;;
21501;SDS011;27639;48.674;9.242;2023-02-27T00:06:19;4.18;;;1.33;;
21501;SDS011;27639;48.674;9.242;2023-02-27T00:08:44;3.45;;;1.80;;
21501;SDS011;27639;48.674;9.242;2023-02-27T00:11:10;3.88;;;1.80;;
21501;SDS011;27639;48.674;9.242;2023-02-27T00:13:35;3.20;;;1.40;;
21501;SDS011;27639;48.674;9.242;2023-02-27T00:16:01;5.05;;;1.52;;
21501;SDS011;27639;48.674;9.242;2023-02-27T00:18:26;3.30;;;1.52;;
21501;SDS011;27639;48.674;9.242;2023-02-27T00:20:52;3.22;;;1.45;;
21501;SDS011;27639;48.674;9.242;2023-02-27T00:23:18;3.40;;;1.50;;
21501;SDS011;27639;48.674;9.242;2023-02-27T00:25:44;3.60;;;1.50;;
21501;SDS011;27639;48.674;9.242;2023-02-27T00:28:09;2.60;;;1.40;;
21501;SDS011;27639;48.674;9.242;2023-02-27T00:30:35;3.08;;;1.38;;
21501;SDS011;27639;48.674;9.242;2023-02-27T00:33:00;3.42;;;1.35;;
21501;SDS011;27639;48.674;9.242;2023-02-27T00:35:26;2.83;;;1.35;;
21501;SDS011;27639;48.674;9.242;2023-02-27T00:37:51;3.95;;;1.90;;
21501;SDS011;27639;48.674;9.242;2023-02-27T00:40:17;4.57;;;1.80;;
21501;SDS011;27639;48.674;9.242;2023-02-27T00:42:43;3.20;;;1.60;;
21501;SDS011;27639;48.674;9.242;2023-02-27T00:45:10;3.95;;;1.98;;
21501;SDS011;27639;48.674;9.242;2023-02-27T00:47:36;3.15;;;1.48;;
21501;SDS011;27639;48.674;9.242;2023-02-27T00:50:02;3.47;;;1.80;;
21501;SDS011;27639;48.674;9.242;2023-02-27T00:52:28;3.55;;;1.50;;
21501;SDS011;27639;48.674;9.242;2023-02-27T00:54:53;2.92;;;2.05;;
21501;SDS011;27639;48.674;9.242;2023-02-27T00:57:19;2.97;;;1.60;;
21501;SDS011;27639;48.674;9.242;2023-02-27T00:59:44;2.72;;;1.65;;
21501;SDS011;27639;48.674;9.242;2023-02-27T01:02:10;3.47;;;1.70;;
21501;SDS011;27639;48.674;9.242;2023-02-27T01:04:36;3.55;;;1.80;;
21501;SDS011;27639;48.674;9.242;2023-02-27T01:07:02;3.67;;;1.83;;
21501;SDS011;27639;48.674;9.242;2023-02-27T01:09:28;4.38;;;1.73;;
21501;SDS011;27639;48.674;9.242;2023-02-27T01:11:53;3.20;;;1.65;;
21501;SDS011;27639;48.674;9.242;2023-02-27T01:14:19;3.65;;;1.70;;
21501;SDS011;27639;48.674;9.242;2023-02-27T01:16:45;3.28;;;1.52;;
21501;SDS011;27639;48.674;9.242;2023-02-27T01:19:10;3.30;;;1.50;;
21501;SDS011;27639;48.674;9.242;2023-02-27T01:21:36;3.15;;;1.60;;
21501;SDS011;27639;48.674;9.242;2023-02-27T01:24:01;3.55;;;1.45;;
21501;SDS011;27639;48.674;9.242;2023-02-27T01:26:27;3.28;;;1.58;;
21501;SDS011;27639;48.674;9.242;2023-02-27T01:28:53;3.20;;;1.17;;
21501;SDS011;27639;48.674;9.242;2023-02-27T01:31:18;3.30;;;1.70;;
21501;SDS011;27639;48.674;9.242;2023-02-27T01:33:44;4.80;;;1.90;;
21501;SDS011;27639;48.674;9.242;2023-02-27T01:36:09;2.80;;;1.60;;
21501;SDS011;27639;48.674;9.242;2023-02-27T01:38:35;3.75;;;1.50;;
21501;SDS011;27639;48.674;9.242;2023-02-27T01:41:01;4.30;;;1.92;;
21501;SDS011;27639;48.674;9.242;2023-02-27T01:43:28;3.35;;;1.95;;
21501;SDS011;27639;48.674;9.242;2023-02-27T01:45:54;4.45;;;1.88;;
21501;SDS011;27639;48.674;9.242;2023-02-27T01:50:55;4.07;;;1.85;;
21501;SDS011;27639;48.674;9.242;2023-02-27T01:53:25;3.60;;;1.90;;
21501;SDS011;27639;48.674;9.242;2023-02-27T01:55:53;3.03;;;1.83;;
21501;SDS011;27639;48.674;9.242;2023-02-27T01:58:23;4.28;;;1.83;;
21501;SDS011;27639;48.674;9.242;2023-02-27T02:00:48;4.68;;;2.00;;
21501;SDS011;27639;48.674;9.242;2023-02-27T02:03:37;3.00;;;1.80;;
21501;SDS011;27639;48.674;9.242;2023-02-27T02:06:04;3.35;;;1.77;;
21501;SDS011;27639;48.674;9.242;2023-02-27T02:08:33;4.90;;;2.13;;
21501;SDS011;27639;48.674;9.242;2023-02-27T02:11:00;4.78;;;2.20;;
21501;SDS011;27639;48.674;9.242;2023-02-27T02:13:27;3.55;;;1.88;;
21501;SDS011;27639;48.674;9.242;2023-02-27T02:15:59;4.97;;;2.00;;
21501;SDS011;27639;48.674;9.242;2023-02-27T02:18:46;3.13;;;1.80;;
21501;SDS011;27639;48.674;9.242;2023-02-27T02:27:01;3.78;;;2.10;;
21501;SDS011;27639;48.674;9.242;2023-02-27T02:29:49;3.42;;;1.92;;
21501;SDS011;27639;48.674;9.242;2023-02-27T02:38:35;3.92;;;2.10;;
21501;SDS011;27639;48.674;9.242;2023-02-27T02:43:56;4.10;;;2.10;;
21501;SDS011;27639;48.674;9.242;2023-02-27T02:46:33;4.30;;;2.40;;
21501;SDS011;27639;48.674;9.242;2023-02-27T02:49:19;3.88;;;2.28;;
21501;SDS011;27639;48.674;9.242;2023-02-27T02:51:57;4.57;;;2.30;;
21501;SDS011;27639;48.674;9.242;2023-02-27T02:54:34;4.65;;;2.60;;
21501;SDS011;27639;48.674;9.242;2023-02-27T02:59:34;5.00;;;2.47;;
21501;SDS011;27639;48.674;9.242;2023-02-27T03:02:09;3.90;;;2.33;;
21501;SDS011;27639;48.674;9.242;2023-02-27T03:04:57;3.85;;;2.20;;
21501;SDS011;27639;48.674;9.242;2023-02-27T03:12:26;5.38;;;2.50;;
21501;SDS011;27639;48.674;9.242;2023-02-27T03:15:00;4.07;;;2.38;;
21501;SDS011;27639;48.674;9.242;2023-02-27T03:20:18;4.65;;;2.30;;
21501;SDS011;27639;48.674;9.242;2023-02-27T03:22:51;4.90;;;2.53;;
21501;SDS011;27639;48.674;9.242;2023-02-27T03:25:20;3.72;;;2.35;;
21501;SDS011;27639;48.674;9.242;2023-02-27T03:27:54;4.68;;;2.70;;
21501;SDS011;27639;48.674;9.242;2023-02-27T03:30:35;5.00;;;2.50;;
21501;SDS011;27639;48.674;9.242;2023-02-27T03:33:18;5.00;;;2.42;;
21501;SDS011;27639;48.674;9.242;2023-02-27T03:41:54;5.03;;;2.60;;
21501;SDS011;27639;48.674;9.242;2023-02-27T03:47:00;5.43;;;2.67;;
21501;SDS011;27639;48.674;9.242;2023-02-27T03:49:26;5.82;;;2.72;;
21501;SDS011;27639;48.674;9.242;2023-02-27T03:51:52;4.82;;;2.42;;
21501;SDS011;27639;48.674;9.242;2023-02-27T03:59:14;3.90;;;2.28;;
21501;SDS011;27639;48.674;9.242;2023-02-27T04:01:40;4.88;;;2.67;;
21501;SDS011;27639;48.674;9.242;2023-02-27T04:04:11;4.82;;;2.70;;
21501;SDS011;27639;48.674;9.242;2023-02-27T04:06:39;5.43;;;2.85;;
21501;SDS011;27639;48.674;9.242;2023-02-27T04:17:55;5.18;;;3.13;;
21501;SDS011;27639;48.674;9.242;2023-02-27T04:20:42;3.95;;;2.47;;
21501;SDS011;27639;48.674;9.242;2023-02-27T04:23:17;4.47;;;2.72;;
21501;SDS011;27639;48.674;9.242;2023-02-27T04:28:40;4.18;;;2.40;;
21501;SDS011;27639;48.674;9.242;2023-02-27T04:31:31;4.43;;;2.72;;
21501;SDS011;27639;48.674;9.242;2023-02-27T04:34:04;4.55;;;2.55;;
21501;SDS011;27639;48.674;9.242;2023-02-27T04:36:46;6.38;;;2.67;;
21501;SDS011;27639;48.674;9.242;2023-02-27T04:39:25;5.68;;;2.97;;
21501;SDS011;27639;48.674;9.242;2023-02-27T04:42:02;4.72;;;2.83;;
21501;SDS011;27639;48.674;9.242;2023-02-27T04:44:40;4.32;;;2.80;;
21501;SDS011;27639;48.674;9.242;2023-02-27T04:47:09;3.75;;;2.55;;
21501;SDS011;27639;48.674;9.242;2023-02-27T04:49:43;5.47;;;3.10;;
21501;SDS011;27639;48.674;9.242;2023-02-27T04:52:23;5.70;;;3.28;;
21501;SDS011;27639;48.674;9.242;2023-02-27T04:57:42;5.90;;;3.13;;
21501;SDS011;27639;48.674;9.242;2023-02-27T05:00:12;4.70;;;2.60;;
21501;SDS011;27639;48.674;9.242;2023-02-27T05:02:44;4.95;;;2.95;;
21501;SDS011;27639;48.674;9.242;2023-02-27T05:05:15;5.43;;;2.63;;
21501;SDS011;27639;48.674;9.242;2023-02-27T05:07:46;3.97;;;2.40;;
21501;SDS011;27639;48.674;9.242;2023-02-27T05:10:31;5.20;;;2.70;;
21501;SDS011;27639;48.674;9.242;2023-02-27T05:13:05;4.28;;;2.83;;
21501;SDS011;27639;48.674;9.242;2023-02-27T05:15:44;5.70;;;3.30;;
21501;SDS011;27639;48.674;9.242;2023-02-27T05:18:23;6.07;;;3.10;;
21501;SDS011;27639;48.674;9.242;2023-02-27T05:26:42;5.55;;;2.58;;
21501;SDS011;27639;48.674;9.242;2023-02-27T05:29:35;5.90;;;2.90;;
21501;SDS011;27639;48.674;9.242;2023-02-27T05:32:36;4.72;;;2.92;;
21501;SDS011;27639;48.674;9.242;2023-02-27T05:35:10;4.38;;;2.53;;
21501;SDS011;27639;48.674;9.242;2023-02-27T05:40:23;6.22;;;3.00;;
21501;SDS011;27639;48.674;9.242;2023-02-27T05:42:57;7.30;;;3.35;;
21501;SDS011;27639;48.674;9.242;2023-02-27T05:45:28;4.97;;;3.08;;
21501;SDS011;27639;48.674;9.242;2023-02-27T05:47:57;6.05;;;3.13;;
21501;SDS011;27639;48.674;9.242;2023-02-27T05:50:37;4.68;;;3.00;;
21501;SDS011;27639;48.674;9.242;2023-02-27T05:53:06;6.28;;;3.42;;
21501;SDS011;27639;48.674;9.242;2023-02-27T05:55:40;6.90;;;3.25;;
21501;SDS011;27639;48.674;9.242;2023-02-27T05:58:18;5.30;;;3.10;;
21501;SDS011;27639;48.674;9.242;2023-02-27T06:03:24;5.78;;;3.47;;
21501;SDS011;27639;48.674;9.242;2023-02-27T06:05:51;8.10;;;3.20;;
21501;SDS011;27639;48.674;9.242;2023-02-27T06:08:18;7.05;;;3.47;;
21501;SDS011;27639;48.674;9.242;2023-02-27T06:10:46;5.10;;;3.22;;
21501;SDS011;27639;48.674;9.242;2023-02-27T06:13:13;7.25;;;3.20;;
21501;SDS011;27639;48.674;9.242;2023-02-27T06:15:41;4.80;;;3.20;;
21501;SDS011;27639;48.674;9.242;2023-02-27T06:18:07;5.40;;;3.10;;
21501;SDS011;27639;48.674;9.242;2023-02-27T06:20:34;6.00;;;3.33;;
21501;SDS011;27639;48.674;9.242;2023-02-27T06:22:59;5.63;;;3.45;;
21501;SDS011;27639;48.674;9.242;2023-02-27T06:25:25;6.20;;;3.80;;
21501;SDS011;27639;48.674;9.242;2023-02-27T06:27:51;5.55;;;2.75;;
21501;SDS011;27639;48.674;9.242;2023-02-27T06:30:16;6.68;;;3.35;;
21501;SDS011;27639;48.674;9.242;2023-02-27T06:32:42;6.32;;;3.60;;
21501;SDS011;27639;48.674;9.242;2023-02-27T06:35:08;5.18;;;3.25;;
21501;SDS011;27639;48.674;9.242;2023-02-27T06:37:34;6.70;;;3.50;;
21501;SDS011;27639;48.674;9.242;2023-02-27T06:39:59;6.22;;;3.78;;
21501;SDS011;27639;48.674;9.242;2023-02-27T06:42:25;6.45;;;3.85;;
21501;SDS011;27639;48.674;9.242;2023-02-27T06:44:50;5.50;;;3.22;;
21501;SDS011;27639;48.674;9.242;2023-02-27T06:47:16;6.28;;;3.53;;
21501;SDS011;27639;48.674;9.242;2023-02-27T06:49:42;6.38;;;2.95;;
21501;SDS011;27639;48.674;9.242;2023-02-27T06:52:08;6.82;;;3.20;;
21501;SDS011;27639;48.674;9.242;2023-02-27T06:54:33;6.22;;;3.60;;
21501;SDS011;27639;48.674;9.242;2023-02-27T06:56:59;6.00;;;3.72;;
21501;SDS011;27639;48.674;9.242;2023-02-27T06:59:25;5.50;;;3.40;;
21501;SDS011;27639;48.674;9.242;2023-02-27T07:01:50;5.95;;;3.60;;
21501;SDS011;27639;48.674;9.242;2023-02-27T07:04:16;6.47;;;3.40;;
21501;SDS011;27639;48.674;9.242;2023-02-27T07:06:42;6.00;;;3.17;;
21501;SDS011;27639;48.674;9.242;2023-02-27T07:09:08;6.60;;;3.33;;
21501;SDS011;27639;48.674;9.242;2023-02-27T07:11:33;5.10;;;3.33;;
21501;SDS011;27639;48.674;9.242;2023-02-27T07:13:59;7.20;;;3.28;;
21501;SDS011;27639;48.674;9.242;2023-02-27T07:16:24;6.28;;;3.58;;
21501;SDS011;27639;48.674;9.242;2023-02-27T07:18:50;7.85;;;3.25;;
21501;SDS011;27639;48.674;9.242;2023-02-27T07:21:16;6.00;;;3.22;;
21501;SDS011;27639;48.674;9.242;2023-02-27T07:23:41;6.90;;;2.80;;
21501;SDS011;27639;48.674;9.242;2023-02-27T07:26:07;5.18;;;3.08;;
21501;SDS011;27639;48.674;9.242;2023-02-27T07:28:32;5.10;;;3.17;;
21501;SDS011;27639;48.674;9.242;2023-02-27T07:30:58;5.43;;;3.30;;
21501;SDS011;27639;48.674;9.242;2023-02-27T07:33:24;5.80;;;2.90;;
21501;SDS011;27639;48.674;9.242;2023-02-27T07:35:50;5.60;;;3.22;;
21501;SDS011;27639;48.674;9.242;2023-02-27T07:38:16;5.38;;;2.85;;
21501;SDS011;27639;48.674;9.242;2023-02-27T07:40:43;5.10;;;2.78;;
21501;SDS011;27639;48.674;9.242;2023-02-27T07:43:10;5.28;;;3.03;;
21501;SDS011;27639;48.674;9.242;2023-02-27T07:45:35;5.95;;;3.58;;
21501;SDS011;27639;48.674;9.242;2023-02-27T07:48:01;4.75;;;2.70;;
21501;SDS011;27639;48.674;9.242;2023-02-27T07:50:27;6.13;;;3.00;;
21501;SDS011;27639;48.674;9.242;2023-02-27T07:52:52;4.68;;;2.70;;
21501;SDS011;27639;48.674;9.242;2023-02-27T07:55:18;4.75;;;2.50;;
21501;SDS011;27639;48.674;9.242;2023-02-27T07:57:43;5.32;;;2.90;;
21501;SDS011;27639;48.674;9.242;2023-02-27T08:00:10;6.03;;;3.17;;
21501;SDS011;27639;48.674;9.242;2023-02-27T08:02:36;5.28;;;3.10;;
21501;SDS011;27639;48.674;9.242;2023-02-27T08:05:01;5.20;;;2.70;;
21501;SDS011;27639;48.674;9.242;2023-02-27T08:07:28;4.50;;;2.50;;
21501;SDS011;27639;48.674;9.242;2023-02-27T08:09:53;5.20;;;2.50;;
21501;SDS011;27639;48.674;9.242;2023-02-27T08:12:19;6.03;;;2.60;;
21501;SDS011;27639;48.674;9.242;2023-02-27T08:14:44;4.63;;;3.00;;
21501;SDS011;27639;48.674;9.242;2023-02-27T08:17:10;6.00;;;2.70;;
21501;SDS011;27639;48.674;9.242;2023-02-27T08:19:35;5.50;;;2.75;;
21501;SDS011;27639;48.674;9.242;2023-02-27T08:22:01;5.30;;;2.35;;
21501;SDS011;27639;48.674;9.242;2023-02-27T08:24:27;6.70;;;2.53;;
21501;SDS011;27639;48.674;9.242;2023-02-27T08:26:53;5.40;;;2.90;;
21501;SDS011;27639;48.674;9.242;2023-02-27T08:29:18;5.18;;;2.85;;
21501;SDS011;27639;48.674;9.242;2023-02-27T08:31:44;5.22;;;2.67;;
21501;SDS011;27639;48.674;9.242;2023-02-27T08:34:10;5.75;;;2.90;;
21501;SDS011;27639;48.674;9.242;2023-02-27T08:36:36;6.70;;;2.85;;
21501;SDS011;27639;48.674;9.242;2023-02-27T08:39:03;4.82;;;2.60;;
21501;SDS011;27639;48.674;9.242;2023-02-27T08:41:30;4.15;;;2.75;;
21501;SDS011;27639;48.674;9.242;2023-02-27T08:43:56;4.63;;;2.78;;
21501;SDS011;27639;48.674;9.242;2023-02-27T08:46:21;5.38;;;2.75;;
21501;SDS011;27639;48.674;9.242;2023-02-27T08:48:47;4.38;;;2.67;;
21501;SDS011;27639;48.674;9.242;2023-02-27T08:51:12;4.60;;;2.85;;
21501;SDS011;27639;48.674;9.242;2023-02-27T08:53:38;5.10;;;2.85;;
21501;SDS011;27639;48.674;9.242;2023-02-27T08:56:03;4.93;;;2.70;;
21501;SDS011;27639;48.674;9.242;2023-02-27T08:58:29;4.75;;;2.67;;
21501;SDS011;27639;48.674;9.242;2023-02-27T09:00:55;5.75;;;2.90;;
21501;SDS011;27639;48.674;9.242;2023-02-27T09:03:20;7.10;;;3.20;;
21501;SDS011;27639;48.674;9.242;2023-02-27T09:05:47;4.93;;;2.25;;
21501;SDS011;27639;48.674;9.242;2023-02-27T09:08:13;4.85;;;2.70;;
21501;SDS011;27639;48.674;9.242;2023-02-27T09:10:39;5.53;;;2.50;;
21501;SDS011;27639;48.674;9.242;2023-02-27T09:13:05;4.65;;;2.50;;
21501;SDS011;27639;48.674;9.242;2023-02-27T09:15:30;5.43;;;2.55;;
21501;SDS011;27639;48.674;9.242;2023-02-27T09:17:58;4.32;;;2.42;;
21501;SDS011;27639;48.674;9.242;2023-02-27T09:20:28;4.45;;;2.58;;
21501;SDS011;27639;48.674;9.242;2023-02-27T09:22:55;4.45;;;2.65;;
21501;SDS011;27639;48.674;9.242;2023-02-27T09:25:22;5.70;;;2.60;;
21501;SDS011;27639;48.674;9.242;2023-02-27T09:27:48;5.65;;;2.90;;
21501;SDS011;27639;48.674;9.242;2023-02-27T09:30:13;5.00;;;2.47;;
21501;SDS011;27639;48.674;9.242;2023-02-27T09:32:39;4.30;;;2.55;;
21501;SDS011;27639;48.674;9.242;2023-02-27T09:35:05;5.03;;;2.30;;
21501;SDS011;27639;48.674;9.242;2023-02-27T09:37:31;4.30;;;2.20;;
21501;SDS011;27639;48.674;9.242;2023-02-27T09:39:57;5.05;;;2.60;;
21501;SDS011;27639;48.674;9.242;2023-02-27T09:42:23;5.00;;;2.08;;
21501;SDS011;27639;48.674;9.242;2023-02-27T09:44:52;2.97;;;1.85;;
21501;SDS011;27639;48.674;9.242;2023-02-27T09:47:37;4.70;;;2.25;;
21501;SDS011;27639;48.674;9.242;2023-02-27T09:53:05;4.28;;;2.17;;
21501;SDS011;27639;48.674;9.242;2023-02-27T09:55:37;4.40;;;2.50;;
21501;SDS011;27639;48.674;9.242;2023-02-27T09:58:06;3.65;;;2.28;;
21501;SDS011;27639;48.674;9.242;2023-02-27T10:00:42;6.25;;;2.50;;
21501;SDS011;27639;48.674;9.242;2023-02-27T10:08:53;4.15;;;2.10;;
21501;SDS011;27639;48.674;9.242;2023-02-27T10:16:57;3.92;;;2.08;;
21501;SDS011;27639;48.674;9.242;2023-02-27T10:19:29;4.20;;;2.20;;
21501;SDS011;27639;48.674;9.242;2023-02-27T10:21:57;4.25;;;2.20;;
21501;SDS011;27639;48.674;9.242;2023-02-27T10:24:26;3.65;;;2.08;;
21501;SDS011;27639;48.674;9.242;2023-02-27T10:26:56;4.35;;;1.70;;
21501;SDS011;27639;48.674;9.242;2023-02-27T10:29:28;4.72;;;2.25;;
21501;SDS011;27639;48.674;9.242;2023-02-27T10:32:06;5.07;;;2.40;;
21501;SDS011;27639;48.674;9.242;2023-02-27T10:34:37;4.20;;;2.22;;
21501;SDS011;27639;48.674;9.242;2023-02-27T10:37:05;6.22;;;2.30;;
21501;SDS011;27639;48.674;9.242;2023-02-27T10:39:56;7.57;;;2.20;;
21501;SDS011;27639;48.674;9.242;2023-02-27T10:42:26;4.80;;;2.10;;
21501;SDS011;27639;48.674;9.242;2023-02-27T10:44:56;4.43;;;2.28;;
21501;SDS011;27639;48.674;9.242;2023-02-27T10:47:23;4.85;;;2.20;;
21501;SDS011;27639;48.674;9.242;2023-02-27T10:49:50;3.60;;;2.10;;
21501;SDS011;27639;48.674;9.242;2023-02-27T10:52:17;3.50;;;1.90;;
21501;SDS011;27639;48.674;9.242;2023-02-27T10:54:43;4.68;;;2.40;;
21501;SDS011;27639;48.674;9.242;2023-02-27T10:57:29;6.65;;;2.03;;
21501;SDS011;27639;48.674;9.242;2023-02-27T11:00:00;4.35;;;2.05;;
21501;SDS011;27639;48.674;9.242;2023-02-27T11:05:04;4.57;;;2.28;;
21501;SDS011;27639;48.674;9.242;2023-02-27T11:07:40;4.70;;;1.98;;
21501;SDS011;27639;48.674;9.242;2023-02-27T11:12:38;5.00;;;2.00;;
21501;SDS011;27639;48.674;9.242;2023-02-27T11:17:39;4.63;;;2.10;;
21501;SDS011;27639;48.674;9.242;2023-02-27T11:20:29;4.22;;;2.03;;
21501;SDS011;27639;48.674;9.242;2023-02-27T11:23:01;4.72;;;2.30;;
21501;SDS011;27639;48.674;9.242;2023-02-27T11:25:37;5.05;;;2.03;;
21501;SDS011;27639;48.674;9.242;2023-02-27T11:31:02;3.25;;;2.08;;
21501;SDS011;27639;48.674;9.242;2023-02-27T11:33:32;4.22;;;2.33;;
21501;SDS011;27639;48.674;9.242;2023-02-27T11:36:02;3.75;;;2.40;;
21501;SDS011;27639;48.674;9.242;2023-02-27T11:38:29;7.10;;;2.42;;
21501;SDS011;27639;48.674;9.242;2023-02-27T11:43:24;4.18;;;2.50;;
21501;SDS011;27639;48.674;9.242;2023-02-27T11:45:57;4.68;;;2.53;;
21501;SDS011;27639;48.674;9.242;2023-02-27T11:48:28;4.43;;;2.30;;
21501;SDS011;27639;48.674;9.242;2023-02-27T11:53:39;3.92;;;2.10;;
21501;SDS011;27639;48.674;9.242;2023-02-27T11:56:42;4.10;;;2.50;;
21501;SDS011;27639;48.674;9.242;2023-02-27T11:59:49;3.78;;;2.03;;
21501;SDS011;27639;48.674;9.242;2023-02-27T12:02:24;4.53;;;2.05;;
21501;SDS011;27639;48.674;9.242;2023-02-27T12:04:54;5.15;;;2.33;;
21501;SDS011;27639;48.674;9.242;2023-02-27T12:07:32;4.00;;;2.00;;
21501;SDS011;27639;48.674;9.242;2023-02-27T12:12:46;3.80;;;2.00;;
21501;SDS011;27639;48.674;9.242;2023-02-27T12:15:28;5.28;;;2.00;;
21501;SDS011;27639;48.674;9.242;2023-02-27T12:23:32;5.35;;;2.38;;
21501;SDS011;27639;48.674;9.242;2023-02-27T12:26:19;3.80;;;2.10;;
21501;SDS011;27639;48.674;9.242;2023-02-27T12:28:50;5.15;;;2.47;;
21501;SDS011;27639;48.674;9.242;2023-02-27T12:34:00;3.42;;;1.92;;
21501;SDS011;27639;48.674;9.242;2023-02-27T12:36:37;3.75;;;2.13;;
21501;SDS011;27639;48.674;9.242;2023-02-27T12:39:03;4.68;;;2.25;;
21501;SDS011;27639;48.674;9.242;2023-02-27T12:47:29;4.65;;;2.20;;
21501;SDS011;27639;48.674;9.242;2023-02-27T12:50:09;4.25;;;2.30;;
21501;SDS011;27639;48.674;9.242;2023-02-27T12:58:33;4.43;;;2.15;;
21501;SDS011;27639;48.674;9.242;2023-02-27T13:04:12;3.10;;;1.75;;
21501;SDS011;27639;48.674;9.242;2023-02-27T13:07:07;4.32;;;2.25;;
21501;SDS011;27639;48.674;9.242;2023-02-27T13:09:44;3.67;;;2.17;;
21501;SDS011;27639;48.674;9.242;2023-02-27T13:14:54;4.88;;;2.40;;
21501;SDS011;27639;48.674;9.242;2023-02-27T13:17:38;4.78;;;2.47;;
21501;SDS011;27639;48.674;9.242;2023-02-27T13:27:47;5.07;;;2.13;;
21501;SDS011;27639;48.674;9.242;2023-02-27T13:30:20;4.57;;;2.30;;
21501;SDS011;27639;48.674;9.242;2023-02-27T13:32:57;3.60;;;1.90;;
21501;SDS011;27639;48.674;9.242;2023-02-27T13:40:36;3.25;;;1.92;;
21501;SDS011;27639;48.674;9.242;2023-02-27T13:43:04;3.85;;;2.10;;
21501;SDS011;27639;48.674;9.242;2023-02-27T13:45:47;4.97;;;2.13;;
21501;SDS011;27639;48.674;9.242;2023-02-27T13:51:00;6.63;;;2.42;;
21501;SDS011;27639;48.674;9.242;2023-02-27T13:53:26;4.63;;;2.00;;
21501;SDS011;27639;48.674;9.242;2023-02-27T13:58:45;6.35;;;2.40;;
21501;SDS011;27639;48.674;9.242;2023-02-27T14:01:14;3.63;;;2.13;;
21501;SDS011;27639;48.674;9.242;2023-02-27T14:03:43;6.68;;;2.28;;
21501;SDS011;27639;48.674;9.242;2023-02-27T14:06:20;4.13;;;2.03;;
21501;SDS011;27639;48.674;9.242;2023-02-27T14:08:49;3.65;;;1.95;;
21501;SDS011;27639;48.674;9.242;2023-02-27T14:11:21;4.45;;;1.80;;
21501;SDS011;27639;48.674;9.242;2023-02-27T14:13:59;4.00;;;2.15;;
21501;SDS011;27639;48.674;9.242;2023-02-27T14:19:01;3.95;;;2.22;;
21501;SDS011;27639;48.674;9.242;2023-02-27T14:21:55;3.75;;;2.30;;
21501;SDS011;27639;48.674;9.242;2023-02-27T14:26:55;4.00;;;1.70;;
21501;SDS011;27639;48.674;9.242;2023-02-27T14:29:23;3.72;;;1.80;;
21501;SDS011;27639;48.674;9.242;2023-02-27T14:31:55;3.65;;;1.77;;
21501;SDS011;27639;48.674;9.242;2023-02-27T14:34:32;3.88;;;1.90;;
21501;SDS011;27639;48.674;9.242;2023-02-27T14:37:02;4.20;;;2.08;;
21501;SDS011;27639;48.674;9.242;2023-02-27T14:39:34;5.32;;;2.00;;
21501;SDS011;27639;48.674;9.242;2023-02-27T14:44:38;3.83;;;1.85;;
21501;SDS011;27639;48.674;9.242;2023-02-27T14:47:13;4.63;;;1.85;;
21501;SDS011;27639;48.674;9.242;2023-02-27T14:49:42;3.05;;;1.67;;
21501;SDS011;27639;48.674;9.242;2023-02-27T14:52:27;3.53;;;1.80;;
21501;SDS011;27639;48.674;9.242;2023-02-27T14:55:05;3.40;;;1.35;;
21501;SDS011;27639;48.674;9.242;2023-02-27T15:01:22;3.90;;;1.55;;
21501;SDS011;27639;48.674;9.242;2023-02-27T15:03:37;5.85;;;2.10;;
21501;SDS011;27639;48.674;9.242;2023-02-27T15:06:16;5.30;;;2.40;;
21501;SDS011;27639;48.674;9.242;2023-02-27T15:08:49;4.88;;;2.05;;
21501;SDS011;27639;48.674;9.242;2023-02-27T15:11:19;4.03;;;2.10;;
21501;SDS011;27639;48.674;9.242;2023-02-27T15:13:47;3.55;;;1.83;;
21501;SDS011;27639;48.674;9.242;2023-02-27T15:18:52;5.68;;;2.05;;
21501;SDS011;27639;48.674;9.242;2023-02-27T15:21:24;3.58;;;1.95;;
21501;SDS011;27639;48.674;9.242;2023-02-27T15:23:52;3.80;;;1.92;;
21501;SDS011;27639;48.674;9.242;2023-02-27T15:26:22;4.18;;;2.00;;
21501;SDS011;27639;48.674;9.242;2023-02-27T15:28:49;4.68;;;2.15;;
21501;SDS011;27639;48.674;9.242;2023-02-27T15:31:22;4.82;;;2.33;;
21501;SDS011;27639;48.674;9.242;2023-02-27T15:33:50;4.25;;;1.80;;
21501;SDS011;27639;48.674;9.242;2023-02-27T15:36:44;5.35;;;2.20;;
21501;SDS011;27639;48.674;9.242;2023-02-27T15:42:00;4.97;;;1.92;;
21501;SDS011;27639;48.674;9.242;2023-02-27T15:46:56;4.25;;;1.90;;
21501;SDS011;27639;48.674;9.242;2023-02-27T15:49:23;4.32;;;1.85;;
21501;SDS011;27639;48.674;9.242;2023-02-27T15:51:59;4.57;;;2.10;;
21501;SDS011;27639;48.674;9.242;2023-02-27T15:54:32;3.40;;;1.83;;
21501;SDS011;27639;48.674;9.242;2023-02-27T15:56:59;4.93;;;2.13;;
21501;SDS011;27639;48.674;9.242;2023-02-27T15:59:27;4.03;;;1.83;;
21501;SDS011;27639;48.674;9.242;2023-02-27T16:01:57;3.97;;;1.98;;
21501;SDS011;27639;48.674;9.242;2023-02-27T16:04:24;3.33;;;1.90;;
21501;SDS011;27639;48.674;9.242;2023-02-27T16:06:57;4.10;;;1.85;;
21501;SDS011;27639;48.674;9.242;2023-02-27T16:09:33;4.15;;;1.50;;
21501;SDS011;27639;48.674;9.242;2023-02-27T16:14:44;3.88;;;2.00;;
21501;SDS011;27639;48.674;9.242;2023-02-27T16:17:30;4.55;;;1.60;;
21501;SDS011;27639;48.674;9.242;2023-02-27T16:19:58;4.18;;;1.83;;
21501;SDS011;27639;48.674;9.242;2023-02-27T16:22:25;4.88;;;1.80;;
21501;SDS011;27639;48.674;9.242;2023-02-27T16:24:51;3.58;;;1.77;;
21501;SDS011;27639;48.674;9.242;2023-02-27T16:27:22;4.25;;;1.88;;
21501;SDS011;27639;48.674;9.242;2023-02-27T16:29:50;3.80;;;1.90;;
21501;SDS011;27639;48.674;9.242;2023-02-27T16:34:47;3.30;;;1.55;;
21501;SDS011;27639;48.674;9.242;2023-02-27T16:37:47;3.78;;;1.70;;
21501;SDS011;27639;48.674;9.242;2023-02-27T16:42:48;4.35;;;1.77;;
21501;SDS011;27639;48.674;9.242;2023-02-27T16:45:15;3.80;;;1.90;;
21501;SDS011;27639;48.674;9.242;2023-02-27T16:47:43;3.53;;;1.70;;
21501;SDS011;27639;48.674;9.242;2023-02-27T16:50:14;3.85;;;1.90;;
21501;SDS011;27639;48.674;9.242;2023-02-27T16:52:45;2.33;;;1.45;;
21501;SDS011;27639;48.674;9.242;2023-02-27T16:55:11;3.83;;;1.70;;
21501;SDS011;27639;48.674;9.242;2023-02-27T16:57:37;4.50;;;1.90;;
21501;SDS011;27639;48.674;9.242;2023-02-27T17:00:03;3.28;;;2.00;;
21501;SDS011;27639;48.674;9.242;2023-02-27T17:02:32;3.58;;;1.80;;
21501;SDS011;27639;48.674;9.242;2023-02-27T17:04:58;3.63;;;1.73;;
21501;SDS011;27639;48.674;9.242;2023-02-27T17:07:23;5.28;;;1.50;;
21501;SDS011;27639;48.674;9.242;2023-02-27T17:09:49;2.63;;;1.48;;
21501;SDS011;27639;48.674;9.242;2023-02-27T17:12:15;5.00;;;1.92;;
21501;SDS011;27639;48.674;9.242;2023-02-27T17:14:40;4.68;;;1.95;;
21501;SDS011;27639;48.674;9.242;2023-02-27T17:17:06;4.68;;;1.70;;
21501;SDS011;27639;48.674;9.242;2023-02-27T17:19:34;4.15;;;1.80;;
21501;SDS011;27639;48.674;9.242;2023-02-27T17:22:00;3.17;;;1.60;;
21501;SDS011;27639;48.674;9.242;2023-02-27T17:24:25;4.72;;;1.67;;
21501;SDS011;27639;48.674;9.242;2023-02-27T17:26:51;3.17;;;1.75;;
21501;SDS011;27639;48.674;9.242;2023-02-27T17:29:17;5.10;;;1.52;;
21501;SDS011;27639;48.674;9.242;2023-02-27T17:31:42;3.20;;;1.52;;
21501;SDS011;27639;48.674;9.242;2023-02-27T17:34:08;4.95;;;1.75;;
21501;SDS011;27639;48.674;9.242;2023-02-27T17:36:34;4.25;;;1.58;;
21501;SDS011;27639;48.674;9.242;2023-02-27T17:39:00;3.28;;;1.50;;
21501;SDS011;27639;48.674;9.242;2023-02-27T17:41:26;4.07;;;1.80;;
21501;SDS011;27639;48.674;9.242;2023-02-27T17:43:53;3.42;;;1.60;;
21501;SDS011;27639;48.674;9.242;2023-02-27T17:46:21;2.60;;;1.38;;
21501;SDS011;27639;48.674;9.242;2023-02-27T17:48:48;5.80;;;1.90;;
21501;SDS011;27639;48.674;9.242;2023-02-27T17:51:14;4.40;;;2.00;;
21501;SDS011;27639;48.674;9.242;2023-02-27T17:53:42;5.03;;;2.15;;
21501;SDS011;27639;48.674;9.242;2023-02-27T17:56:08;2.75;;;1.45;;